createdAt,value
2023-03-29T00:02:05.294Z,0.62
2023-03-29T00:05:29.197Z,0.57
2023-03-29T00:08:38.880Z,0.60
2023-03-29T00:11:45.292Z,0.56
2023-03-29T00:15:21.775Z,0.52
2023-03-29T00:18:25.138Z,0.38
2023-03-29T00:21:32.189Z,0.28
2023-03-29T00:24:36.636Z,0.24
2023-03-29T00:27:40.986Z,0.09
2023-03-29T00:30:56.171Z,0.07
2023-03-29T00:34:01.010Z,-0.04
2023-03-29T00:37:09.913Z,-0.05
2023-03-29T00:40:13.613Z,-0.09
2023-03-29T00:43:21.137Z,-0.21
2023-03-29T00:46:32.493Z,-0.27
2023-03-29T00:49:40.094Z,-0.35
2023-03-29T00:52:48.830Z,-0.35
2023-03-29T00:55:58.012Z,-0.30
2023-03-29T00:59:24.784Z,-0.33
2023-03-29T01:07:03.639Z,-0.50
2023-03-29T01:10:25.973Z,-0.58
2023-03-29T01:13:39.461Z,-0.67
2023-03-29T01:16:43.015Z,-0.78
2023-03-29T01:19:58.458Z,-0.74
2023-03-29T01:23:27.040Z,-0.80
2023-03-29T01:26:38.926Z,-0.85
2023-03-29T01:30:05.569Z,-0.82
2023-03-29T01:33:21.558Z,-0.85
2023-03-29T01:36:54.781Z,-0.93
2023-03-29T01:40:13.322Z,-0.90
2023-03-29T01:43:41.953Z,-0.95
2023-03-29T01:47:11.343Z,-1.01
2023-03-29T01:50:38.806Z,-1.10
2023-03-29T01:53:57.554Z,-1.27
2023-03-29T01:57:12.748Z,-1.47
2023-03-29T02:00:21.356Z,-1.53
2023-03-29T02:03:31.381Z,-1.71
2023-03-29T02:06:56.124Z,-1.80
2023-03-29T02:09:59.717Z,-1.90
2023-03-29T02:13:04.828Z,-1.99
2023-03-29T02:16:14.633Z,-2.10
2023-03-29T02:19:20.077Z,-2.17
2023-03-29T02:23:09.285Z,-2.21
2023-03-29T02:30:44.228Z,-2.27
2023-03-29T02:34:16.246Z,-2.13
2023-03-29T02:37:21.924Z,-2.03
2023-03-29T02:40:32.865Z,-1.84
2023-03-29T02:43:58.032Z,-1.88
2023-03-29T02:47:09.252Z,-1.96
2023-03-29T02:50:17.920Z,-1.99
2023-03-29T02:53:32.346Z,-2.03
2023-03-29T02:56:49.286Z,-2.05
2023-03-29T02:59:57.258Z,-2.16
2023-03-29T03:03:12.202Z,-2.27
2023-03-29T03:06:15.661Z,-2.40
2023-03-29T03:09:20.026Z,-2.52
2023-03-29T03:12:24.098Z,-2.64
2023-03-29T03:15:31.803Z,-2.73
2023-03-29T03:18:35.169Z,-2.79
2023-03-29T03:21:38.866Z,-2.95
2023-03-29T03:24:46.939Z,-2.93
2023-03-29T03:28:10.653Z,-3.00
2023-03-29T03:31:34.737Z,-3.11
2023-03-29T03:34:42.532Z,-3.07
2023-03-29T03:37:48.524Z,-3.08
2023-03-29T03:40:59.542Z,-3.21
2023-03-29T03:44:02.801Z,-2.98
2023-03-29T03:47:07.188Z,-3.03
2023-03-29T03:50:49.121Z,-3.12
2023-03-29T03:53:53.994Z,-3.15
2023-03-29T03:57:04.019Z,-3.12
2023-03-29T04:00:19.565Z,-3.19
2023-03-29T04:03:27.337Z,-3.12
2023-03-29T04:06:36.328Z,-3.16
2023-03-29T04:09:46.069Z,-3.15
2023-03-29T04:13:13.701Z,-3.12
2023-03-29T04:16:18.734Z,-3.11
2023-03-29T04:19:26.562Z,-3.18
2023-03-29T04:22:30.365Z,-3.20
2023-03-29T04:25:34.449Z,-3.19
2023-03-29T04:28:40.687Z,-3.15
2023-03-29T04:31:57.153Z,-3.16
2023-03-29T04:35:10.658Z,-3.15
2023-03-29T04:38:13.919Z,-3.13
2023-03-29T04:41:20.562Z,-3.18
2023-03-29T04:44:24.623Z,-3.14
2023-03-29T04:47:30.179Z,-3.04
2023-03-29T04:50:33.525Z,-2.70
2023-03-29T04:53:38.263Z,-2.45
2023-03-29T04:56:45.581Z,-2.14
2023-03-29T04:59:54.155Z,-1.90
2023-03-29T05:02:59.921Z,-1.72
2023-03-29T05:06:15.924Z,-1.56
2023-03-29T05:09:22.257Z,-1.41
2023-03-29T05:12:58.471Z,-1.33
2023-03-29T05:16:04.686Z,-1.21
2023-03-29T05:19:12.463Z,-1.12
2023-03-29T05:22:16.883Z,-1.05
2023-03-29T05:25:21.689Z,-0.96
2023-03-29T05:28:24.961Z,-0.95
2023-03-29T05:31:29.669Z,-0.89
2023-03-29T05:34:34.237Z,-0.74
2023-03-29T05:37:39.192Z,-0.66
2023-03-29T05:40:43.282Z,-0.46
2023-03-29T05:43:48.745Z,-0.38
2023-03-29T05:46:55.086Z,-0.37
2023-03-29T05:50:18.756Z,-0.27
2023-03-29T05:53:25.703Z,-0.11
2023-03-29T05:56:32.124Z,-0.08
2023-03-29T05:59:38.710Z,0.03
2023-03-29T06:02:43.984Z,0.12
2023-03-29T06:05:49.770Z,0.25
2023-03-29T06:09:15.089Z,0.38
2023-03-29T06:12:22.360Z,0.67
2023-03-29T06:15:25.868Z,1.01
2023-03-29T06:18:34.599Z,1.00
2023-03-29T06:22:00.151Z,0.96
2023-03-29T06:25:09.362Z,0.96
2023-03-29T06:28:18.334Z,1.18
2023-03-29T06:31:25.273Z,1.24
2023-03-29T06:34:28.938Z,1.31
2023-03-29T06:37:34.125Z,1.19
2023-03-29T06:40:48.425Z,1.48
2023-03-29T06:44:13.513Z,1.85
2023-03-29T06:47:49.292Z,1.91
2023-03-29T06:50:55.008Z,2.10
2023-03-29T06:54:19.250Z,2.70
2023-03-29T06:57:25.582Z,2.70
2023-03-29T07:00:35.900Z,2.89
2023-03-29T07:03:39.534Z,3.14
2023-03-29T07:06:48.527Z,3.19
2023-03-29T07:09:56.686Z,2.80
2023-03-29T07:13:23.712Z,2.97
2023-03-29T07:16:29.353Z,3.80
2023-03-29T07:20:09.779Z,3.38
2023-03-29T07:23:17.181Z,4.23
2023-03-29T07:26:46.096Z,4.17
2023-03-29T07:30:25.873Z,3.69
2023-03-29T07:33:31.262Z,4.21
2023-03-29T07:36:38.723Z,4.05
2023-03-29T07:39:43.052Z,4.45
2023-03-29T07:43:13.640Z,4.70
2023-03-29T07:46:48.465Z,4.46
2023-03-29T07:49:55.008Z,4.24
2023-03-29T07:53:18.710Z,4.87
2023-03-29T07:56:33.755Z,5.43
2023-03-29T07:59:39.646Z,4.85
2023-03-29T08:03:13.348Z,4.19
2023-03-29T08:06:38.866Z,4.56
2023-03-29T08:09:43.590Z,4.34
2023-03-29T08:12:50.596Z,4.28
2023-03-29T08:15:55.653Z,4.82
2023-03-29T08:19:03.729Z,4.85
2023-03-29T08:22:09.719Z,4.85
2023-03-29T08:25:18.726Z,4.96
2023-03-29T08:28:29.279Z,5.23
2023-03-29T08:31:38.723Z,5.59
2023-03-29T08:34:41.922Z,5.64
2023-03-29T08:37:49.324Z,5.69
2023-03-29T08:40:54.088Z,5.71
2023-03-29T08:44:14.035Z,6.03
2023-03-29T08:48:02.696Z,6.18
2023-03-29T08:51:23.984Z,6.49
2023-03-29T08:54:52.128Z,7.16
2023-03-29T08:58:26.246Z,6.94
2023-03-29T09:01:53.357Z,8.08
2023-03-29T09:05:29.549Z,7.45
2023-03-29T09:08:39.412Z,8.24
2023-03-29T09:12:18.303Z,9.05
2023-03-29T09:15:44.466Z,9.43
2023-03-29T09:19:00.103Z,8.99
2023-03-29T09:22:09.431Z,8.40
2023-03-29T09:25:27.820Z,8.59
2023-03-29T09:29:23.165Z,8.15
2023-03-29T09:32:36.236Z,9.97
2023-03-29T09:36:18.755Z,9.90
2023-03-29T09:39:43.155Z,9.47
2023-03-29T09:42:54.078Z,9.73
2023-03-29T09:46:05.033Z,9.89
2023-03-29T09:49:18.405Z,9.56
2023-03-29T09:52:24.555Z,9.90
2023-03-29T09:55:55.523Z,10.96
2023-03-29T10:00:05.287Z,10.66
2023-03-29T10:03:24.424Z,9.81
2023-03-29T10:06:31.615Z,9.21
2023-03-29T10:09:36.554Z,8.77
2023-03-29T10:12:54.352Z,10.20
2023-03-29T10:16:21.298Z,9.96
2023-03-29T10:19:36.400Z,9.06
2023-03-29T10:23:00.231Z,10.28
2023-03-29T10:26:23.402Z,10.42
2023-03-29T10:29:28.077Z,10.83
2023-03-29T10:32:35.834Z,9.60
2023-03-29T10:35:54.105Z,9.04
2023-03-29T10:39:05.926Z,9.53
2023-03-29T10:42:28.846Z,9.13
2023-03-29T10:45:37.625Z,10.31
2023-03-29T10:48:46.936Z,9.69
2023-03-29T10:51:52.491Z,9.81
2023-03-29T10:55:02.804Z,10.19
2023-03-29T10:58:40.320Z,11.02
2023-03-29T11:02:34.109Z,9.59
2023-03-29T11:06:01.411Z,11.10
2023-03-29T11:09:56.303Z,11.76
2023-03-29T11:13:09.219Z,10.80
2023-03-29T11:17:29.058Z,12.74
2023-03-29T11:21:12.686Z,11.46
2023-03-29T11:25:20.573Z,12.82
2023-03-29T11:29:19.601Z,12.20
2023-03-29T11:32:33.766Z,12.80
2023-03-29T11:36:29.780Z,14.39
2023-03-29T11:40:05.859Z,13.16
2023-03-29T11:43:45.352Z,12.33
2023-03-29T11:47:00.519Z,12.22
2023-03-29T11:50:22.483Z,12.06
2023-03-29T11:54:25.292Z,12.65
2023-03-29T11:57:45.574Z,13.14
2023-03-29T12:01:32.026Z,11.36
2023-03-29T12:04:57.701Z,11.63
2023-03-29T12:08:25.506Z,12.88
2023-03-29T12:12:03.875Z,12.36
2023-03-29T12:15:28.532Z,11.64
2023-03-29T12:19:08.472Z,12.08
2023-03-29T12:22:38.840Z,10.92
2023-03-29T12:26:19.172Z,11.41
2023-03-29T12:30:23.924Z,10.51
2023-03-29T12:34:11.797Z,11.72
2023-03-29T12:38:05.556Z,10.80
2023-03-29T12:41:28.918Z,9.97
2023-03-29T12:45:36.748Z,10.13
2023-03-29T12:49:30.266Z,10.78
2023-03-29T12:53:15.703Z,10.84
2023-03-29T12:57:00.551Z,10.37
2023-03-29T13:00:45.847Z,10.45
2023-03-29T13:04:22.920Z,10.81
2023-03-29T13:07:56.215Z,9.87
2023-03-29T13:11:29.565Z,10.14
2023-03-29T13:15:26.046Z,10.22
2023-03-29T13:23:00.050Z,11.58
2023-03-29T13:26:35.255Z,11.94
2023-03-29T13:30:32.905Z,11.52
2023-03-29T13:34:02.222Z,11.97
2023-03-29T13:37:58.994Z,10.90
2023-03-29T13:41:43.492Z,10.59
2023-03-29T13:45:26.558Z,9.54
2023-03-29T13:49:25.270Z,10.54
2023-03-29T13:53:18.550Z,11.25
2023-03-29T13:56:57.141Z,11.14
2023-03-29T14:00:52.392Z,10.74
2023-03-29T14:04:24.178Z,10.19
2023-03-29T14:07:49.127Z,11.15
2023-03-29T14:11:23.943Z,11.16
2023-03-29T14:15:02.034Z,9.74
2023-03-29T14:18:23.729Z,10.09
2023-03-29T14:21:42.566Z,10.54
2023-03-29T14:25:19.426Z,9.89
2023-03-29T14:28:36.184Z,10.34
2023-03-29T14:32:16.909Z,10.66
2023-03-29T14:35:51.905Z,10.58
2023-03-29T14:39:43.709Z,10.72
2023-03-29T14:43:11.676Z,10.02
2023-03-29T14:46:51.047Z,10.58
2023-03-29T14:50:20.753Z,10.50
2023-03-29T14:54:03.598Z,10.80
2023-03-29T14:57:40.073Z,10.46
2023-03-29T15:01:17.683Z,10.92
2023-03-29T15:04:41.954Z,11.05
2023-03-29T15:08:19.762Z,10.92
2023-03-29T15:12:04.198Z,10.62
2023-03-29T15:15:27.920Z,9.72
2023-03-29T15:18:53.722Z,10.57
2023-03-29T15:22:16.856Z,10.24
2023-03-29T15:26:22.814Z,10.28
2023-03-29T15:30:15.761Z,10.54
2023-03-29T15:33:48.875Z,10.55
2023-03-29T15:37:06.577Z,10.48
2023-03-29T15:40:44.315Z,10.87
2023-03-29T15:44:10.928Z,10.63
2023-03-29T15:48:28.425Z,10.38
2023-03-29T15:51:57.618Z,10.56
2023-03-29T15:55:35.706Z,10.18
2023-03-29T15:58:59.437Z,9.55
2023-03-29T16:02:04.814Z,10.06
2023-03-29T16:05:44.548Z,9.87
2023-03-29T16:08:58.265Z,9.91
2023-03-29T16:12:42.523Z,9.81
2023-03-29T16:16:21.309Z,9.65
2023-03-29T16:19:46.178Z,9.66
2023-03-29T16:23:34.570Z,9.61
2023-03-29T16:34:30.333Z,9.51
2023-03-29T16:37:59.635Z,9.45
2023-03-29T16:42:06.893Z,9.34
2023-03-29T16:45:29.664Z,9.19
2023-03-29T16:52:44.964Z,8.91
2023-03-29T16:56:08.816Z,8.89
2023-03-29T16:59:45.206Z,8.81
2023-03-29T17:03:32.909Z,8.62
2023-03-29T17:29:24.173Z,7.85
2023-03-29T17:33:00.872Z,7.72
2023-03-29T17:40:33.345Z,7.74
2023-03-29T17:44:12.415Z,7.71
2023-03-29T17:47:34.883Z,7.58
2023-03-29T17:50:57.437Z,7.50
2023-03-29T17:58:30.645Z,7.52
2023-03-29T18:02:08.259Z,7.47
2023-03-29T18:10:08.606Z,7.35
2023-03-29T18:21:02.172Z,7.29
2023-03-29T18:24:41.176Z,7.33
2023-03-29T18:32:40.100Z,7.31
2023-03-29T18:40:25.224Z,7.25
2023-03-29T18:47:55.049Z,7.15
2023-03-29T18:51:33.330Z,7.15
2023-03-29T18:55:08.273Z,7.12
2023-03-29T18:59:27.369Z,7.13
2023-03-29T19:07:30.141Z,6.99
2023-03-29T19:14:26.495Z,7.02
2023-03-29T19:26:13.559Z,6.93
2023-03-29T19:33:17.501Z,6.95
2023-03-29T19:36:47.837Z,6.99
2023-03-29T19:40:28.872Z,7.00
2023-03-29T19:43:57.686Z,6.90
2023-03-29T19:51:09.114Z,6.94
2023-03-29T19:54:39.922Z,6.97
2023-03-29T19:59:03.367Z,6.88
2023-03-29T20:03:14.396Z,6.86
2023-03-29T20:06:45.318Z,6.95
2023-03-29T20:10:29.084Z,6.84
2023-03-29T20:14:30.809Z,6.86
2023-03-29T20:18:04.494Z,6.92
2023-03-29T20:22:00.768Z,6.91
2023-03-29T20:26:09.008Z,6.90
2023-03-29T20:29:57.703Z,6.84
2023-03-29T20:33:32.372Z,6.87
2023-03-29T20:37:14.653Z,6.97
2023-03-29T20:41:09.621Z,6.82
2023-03-29T20:44:50.554Z,6.82
2023-03-29T20:48:32.244Z,6.81
2023-03-29T20:52:23.223Z,6.82
2023-03-29T20:56:51.295Z,6.73
2023-03-29T21:00:52.189Z,6.65
2023-03-29T21:05:17.520Z,6.75
2023-03-29T21:09:06.605Z,6.69
2023-03-29T21:13:14.968Z,6.61
2023-03-29T21:17:24.733Z,6.62
2023-03-29T21:21:10.484Z,6.60
2023-03-29T21:25:02.275Z,6.53
2023-03-29T21:28:43.131Z,6.53
2023-03-29T21:32:52.733Z,6.52
2023-03-29T21:36:43.754Z,6.48
2023-03-29T21:40:23.043Z,6.44
2023-03-29T21:43:33.026Z,6.38
2023-03-29T21:47:32.624Z,6.38
2023-03-29T21:50:59.305Z,6.33
2023-03-29T21:58:27.508Z,6.25
2023-03-29T22:02:39.061Z,6.20
2023-03-29T22:06:08.653Z,6.15
2023-03-29T22:09:52.393Z,6.09
2023-03-29T22:14:10.023Z,6.00
2023-03-29T22:18:03.183Z,5.90
2023-03-29T22:21:54.903Z,5.74
2023-03-29T22:25:22.943Z,5.57
2023-03-29T22:29:21.440Z,5.45
2023-03-29T22:32:49.782Z,5.38
2023-03-29T22:36:38.828Z,5.20
2023-03-29T22:48:31.387Z,4.78
2023-03-29T22:52:35.342Z,4.67
2023-03-29T22:56:02.618Z,4.53
2023-03-29T22:59:58.913Z,4.44
2023-03-29T23:03:24.213Z,4.33
2023-03-29T23:07:02.609Z,4.27
2023-03-29T23:10:55.897Z,4.20
2023-03-29T23:14:47.290Z,4.11
2023-03-29T23:22:37.403Z,4.05
2023-03-29T23:33:53.166Z,4.01
2023-03-29T23:38:07.595Z,4.03
2023-03-29T23:42:20.674Z,4.08
2023-03-29T23:46:08.343Z,4.16
2023-03-29T23:50:05.686Z,4.21
2023-03-29T23:53:42.155Z,4.28
2023-03-29T23:57:48.984Z,4.35
